Time;durP1;ratioP1;P1;durP2;ratioP2;P2;SDS_P1;SDS_P2;PMS_P1;PMS_P2;Temp;Humidity;BMP_temperature;BMP_pressure;BME280_temperature;BME280_humidity;BME280_pressure;Samples;Min_cycle;Max_cycle;Signal;HPM_P1;HPM_P2
2023/12/24 00:01:44;;;;;;;31.67;20.02;;;8.30;99.30;;;;;;5038706;28;20389;-81
2023/12/24 00:04:11;;;;;;;33.17;20.58;;;8.30;99.00;;;;;;5072061;28;20044;-80
2023/12/24 00:06:36;;;;;;;29.02;19.75;;;8.30;98.90;;;;;;5073615;28;20025;-80
2023/12/24 00:09:02;;;;;;;29.40;19.50;;;8.40;98.80;;;;;;5072954;28;20391;-80
2023/12/24 00:11:29;;;;;;;32.45;20.60;;;8.40;98.80;;;;;;5073468;28;20081;-80
2023/12/24 00:13:54;;;;;;;32.80;21.25;;;8.40;98.80;;;;;;5055653;28;20036;-80
2023/12/24 00:16:20;;;;;;;35.10;24.02;;;8.40;98.80;;;;;;5073559;28;20032;-80
2023/12/24 00:18:46;;;;;;;28.92;20.58;;;8.50;98.70;;;;;;5073477;28;20071;-80
2023/12/24 00:21:13;;;;;;;30.70;20.17;;;8.40;98.60;;;;;;5073698;28;20439;-80
2023/12/24 00:23:39;;;;;;;34.83;21.08;;;8.50;98.60;;;;;;5055859;28;20111;-80
2023/12/24 00:26:05;;;;;;;36.30;24.20;;;8.50;98.50;;;;;;5072873;28;20107;-80
2023/12/24 00:28:30;;;;;;;31.13;21.08;;;8.50;98.30;;;;;;5072961;28;20032;-80
2023/12/24 00:30:57;;;;;;;29.08;20.35;;;8.40;98.20;;;;;;5073477;28;20032;-80
2023/12/24 00:33:23;;;;;;;33.83;20.80;;;8.40;98.20;;;;;;5071447;28;20032;-80
2023/12/24 00:35:48;;;;;;;32.63;21.95;;;8.40;98.10;;;;;;5073013;28;20111;-80
2023/12/24 00:38:14;;;;;;;52.10;34.17;;;8.40;98.10;;;;;;5073138;28;20028;-79
2023/12/24 00:40:40;;;;;;;29.08;19.17;;;8.30;97.90;;;;;;5073551;28;20033;-80
2023/12/24 00:43:05;;;;;;;36.42;22.25;;;8.20;98.00;;;;;;5073290;28;20024;-79
2023/12/24 00:45:31;;;;;;;33.80;22.73;;;8.20;98.00;;;;;;5072951;28;20032;-79
2023/12/24 00:47:57;;;;;;;32.13;21.25;;;8.20;98.00;;;;;;5073013;28;20031;-80
2023/12/24 00:50:23;;;;;;;30.98;20.15;;;8.10;98.00;;;;;;5073275;28;20050;-80
2023/12/24 00:52:49;;;;;;;30.38;21.55;;;8.10;98.00;;;;;;5072785;28;20029;-80
2023/12/24 00:55:15;;;;;;;32.22;21.45;;;8.10;98.10;;;;;;5072504;28;20479;-80
2023/12/24 00:57:41;;;;;;;33.33;21.42;;;8.10;98.10;;;;;;5071582;28;20020;-80
2023/12/24 01:00:07;;;;;;;30.35;21.33;;;8.10;98.00;;;;;;5072074;28;20043;-80
2023/12/24 01:02:33;;;;;;;37.33;22.67;;;8.20;98.00;;;;;;5072047;28;20461;-80
2023/12/24 01:04:59;;;;;;;32.45;21.55;;;8.10;97.80;;;;;;5072490;28;20037;-80
2023/12/24 01:07:24;;;;;;;32.30;21.55;;;8.20;97.70;;;;;;5072055;28;20353;-80
2023/12/24 01:09:50;;;;;;;35.67;22.23;;;8.20;97.60;;;;;;5073025;28;20028;-80
2023/12/24 01:12:17;;;;;;;34.78;21.58;;;8.10;97.60;;;;;;5072792;28;20036;-81
2023/12/24 01:14:42;;;;;;;35.20;22.63;;;8.10;97.70;;;;;;5072672;28;20384;-80
2023/12/24 01:17:08;;;;;;;32.33;21.88;;;8.10;97.70;;;;;;5071665;28;20059;-80
2023/12/24 01:19:33;;;;;;;37.42;22.83;;;8.00;97.70;;;;;;5072906;28;20171;-80
2023/12/24 01:21:59;;;;;;;35.00;23.02;;;8.00;97.80;;;;;;5072390;28;20029;-80
2023/12/24 01:24:25;;;;;;;34.80;21.73;;;8.00;97.70;;;;;;5070605;28;20040;-80
2023/12/24 01:26:51;;;;;;;32.20;21.02;;;8.00;97.80;;;;;;5072003;28;20392;-80
2023/12/24 01:29:17;;;;;;;34.17;23.38;;;8.00;97.80;;;;;;5072451;28;20040;-79
2023/12/24 01:31:42;;;;;;;36.95;22.95;;;8.00;97.90;;;;;;5072285;28;20028;-79
2023/12/24 01:34:08;;;;;;;55.60;36.47;;;8.00;97.90;;;;;;5072444;28;20029;-79
2023/12/24 01:36:38;;;;;;;32.67;21.63;;;8.00;97.80;;;;;;5054190;28;20031;-80
2023/12/24 01:39:04;;;;;;;;;;;7.90;97.90;;;;;;5072965;28;20040;-80
2023/12/24 01:41:31;;;;;;;34.00;23.13;;;7.80;97.90;;;;;;5072537;28;20276;-80
2023/12/24 01:43:57;;;;;;;34.03;22.58;;;7.70;97.90;;;;;;5072439;28;20035;-80
2023/12/24 01:46:22;;;;;;;32.30;20.33;;;7.70;98.00;;;;;;5072180;28;20115;-79
2023/12/24 01:48:50;;;;;;;32.08;22.42;;;7.70;97.90;;;;;;5072316;28;20067;-80
2023/12/24 01:51:20;;;;;;;39.63;27.00;;;7.70;98.00;;;;;;5072149;28;20042;-80
2023/12/24 01:53:50;;;;;;;;;;;7.70;97.80;;;;;;5072199;28;20058;-79
2023/12/24 01:56:18;;;;;;;32.93;21.80;;;7.70;97.80;;;;;;5071986;28;19915;-79
2023/12/24 01:58:43;;;;;;;33.38;22.83;;;7.60;97.90;;;;;;5071845;28;20368;-79
2023/12/24 02:01:10;;;;;;;30.58;19.92;;;7.60;98.00;;;;;;5071984;28;20037;-79
2023/12/24 02:03:36;;;;;;;34.25;21.92;;;7.60;98.10;;;;;;5071207;28;20124;-79
2023/12/24 02:06:03;;;;;;;25.63;17.90;;;7.70;98.20;;;;;;5072115;28;20028;-79
2023/12/24 02:08:29;;;;;;;31.33;20.10;;;7.70;98.10;;;;;;5072563;28;20052;-79
2023/12/24 02:10:55;;;;;;;34.03;20.77;;;7.70;98.20;;;;;;5055450;28;20044;-79
2023/12/24 02:13:21;;;;;;;35.47;21.50;;;7.70;98.10;;;;;;5075427;28;20442;-80
2023/12/24 02:15:51;;;;;;;32.15;21.00;;;7.70;98.20;;;;;;5075338;28;20349;-79
2023/12/24 02:18:17;;;;;;;29.10;19.30;;;7.70;98.20;;;;;;5076310;28;20035;-79
2023/12/24 02:20:43;;;;;;;30.70;20.83;;;7.70;98.40;;;;;;5057933;28;20046;-79
2023/12/24 02:23:08;;;;;;;29.67;19.88;;;7.80;98.30;;;;;;5075914;28;20032;-79
2023/12/24 02:25:34;;;;;;;27.38;18.88;;;7.80;98.60;;;;;;5056807;28;20060;-79
2023/12/24 02:28:23;;;;;;;30.63;19.05;;;7.80;98.70;;;;;;5075657;28;20024;-79
2023/12/24 02:30:52;;;;;;;41.70;26.20;;;7.90;98.60;;;;;;5075284;28;20532;-79
2023/12/24 02:33:21;;;;;;;26.60;18.35;;;7.90;98.60;;;;;;5075242;28;20024;-79
2023/12/24 02:35:48;;;;;;;27.80;17.88;;;7.90;98.50;;;;;;5075151;28;20037;-80
2023/12/24 02:38:14;;;;;;;28.23;18.15;;;7.90;98.40;;;;;;5075335;28;20103;-79
2023/12/24 02:40:40;;;;;;;30.42;20.77;;;7.90;98.30;;;;;;5061302;28;20115;-79
2023/12/24 02:43:08;;;;;;;31.55;19.98;;;7.90;98.30;;;;;;5075639;28;20029;-79
2023/12/24 02:45:34;;;;;;;32.38;19.60;;;7.90;98.20;;;;;;5057163;28;20040;-78
2023/12/24 02:48:00;;;;;;;29.38;20.00;;;7.90;98.20;;;;;;5075308;28;20027;-78
2023/12/24 02:50:26;;;;;;;31.10;18.92;;;7.90;98.00;;;;;;5074354;28;20044;-79
2023/12/24 02:52:52;;;;;;;47.03;28.17;;;7.90;98.00;;;;;;5074530;28;20025;-79
2023/12/24 02:55:17;;;;;;;29.95;20.42;;;7.90;97.90;;;;;;5074914;28;20024;-79
2023/12/24 02:57:43;;;;;;;23.00;14.85;;;7.90;97.90;;;;;;5065583;28;20012;-79
2023/12/24 03:00:09;;;;;;;50.88;31.20;;;7.90;97.80;;;;;;5074926;28;20031;-79
2023/12/24 03:02:35;;;;;;;38.28;24.10;;;7.90;97.80;;;;;;5074086;28;20407;-79
2023/12/24 03:05:02;;;;;;;28.75;16.90;;;7.80;98.20;;;;;;5074974;28;20032;-79
2023/12/24 03:07:28;;;;;;;27.10;18.77;;;7.70;98.10;;;;;;5074832;28;20028;-79
2023/12/24 03:09:54;;;;;;;31.38;19.50;;;7.70;98.00;;;;;;5074696;28;20025;-80
2023/12/24 03:12:20;;;;;;;28.90;18.65;;;7.70;98.00;;;;;;5065425;28;20055;-79
2023/12/24 03:14:45;;;;;;;30.25;19.70;;;7.70;98.00;;;;;;5074282;28;20028;-80
2023/12/24 03:17:11;;;;;;;39.47;20.77;;;7.80;97.90;;;;;;5074272;28;20511;-80
2023/12/24 03:19:37;;;;;;;25.73;17.20;;;7.80;97.70;;;;;;5074393;28;20031;-79
2023/12/24 03:22:03;;;;;;;28.70;19.00;;;7.80;97.70;;;;;;5073605;28;20093;-80
2023/12/24 03:24:28;;;;;;;31.42;19.70;;;7.80;97.70;;;;;;5074447;28;20024;-79
2023/12/24 03:26:54;;;;;;;30.63;20.60;;;7.80;97.50;;;;;;5074640;28;20039;-79
2023/12/24 03:29:20;;;;;;;28.45;18.27;;;7.80;97.40;;;;;;5056453;28;20040;-79
2023/12/24 03:31:46;;;;;;;28.65;19.35;;;7.80;97.40;;;;;;5072948;28;20033;-79
2023/12/24 03:34:12;;;;;;;30.27;19.58;;;7.80;97.30;;;;;;5074231;28;20036;-81
2023/12/24 03:36:37;;;;;;;26.67;17.73;;;7.80;97.30;;;;;;5074128;28;20078;-80
2023/12/24 03:39:03;;;;;;;29.50;19.48;;;7.70;97.30;;;;;;5068900;28;20032;-81
2023/12/24 03:41:29;;;;;;;30.67;19.52;;;7.70;97.40;;;;;;5073798;28;20051;-81
2023/12/24 03:43:55;;;;;;;29.17;18.88;;;7.60;97.40;;;;;;5073702;28;20039;-80
2023/12/24 03:46:21;;;;;;;28.38;19.33;;;7.60;97.50;;;;;;5073696;28;20028;-80
2023/12/24 03:48:47;;;;;;;26.95;17.73;;;7.60;97.40;;;;;;5073663;28;20032;-80
2023/12/24 03:51:12;;;;;;;27.55;17.60;;;7.60;97.40;;;;;;5073254;28;20037;-81
2023/12/24 03:53:38;;;;;;;28.52;18.48;;;7.60;97.50;;;;;;5072962;28;20024;-81
2023/12/24 03:56:05;;;;;;;26.48;17.13;;;7.60;97.40;;;;;;5073669;28;20035;-81
2023/12/24 03:58:30;;;;;;;25.92;17.45;;;7.60;97.30;;;;;;5055465;28;20029;-80
2023/12/24 04:00:56;;;;;;;28.80;19.35;;;7.60;97.40;;;;;;5072885;28;20027;-80
2023/12/24 04:03:22;;;;;;;30.10;18.15;;;7.60;97.40;;;;;;5072681;28;20495;-80
2023/12/24 04:05:48;;;;;;;28.27;17.50;;;7.60;97.50;;;;;;5073448;28;20033;-80
2023/12/24 04:08:17;;;;;;;31.02;18.38;;;7.60;97.30;;;;;;5073769;28;20449;-80
2023/12/24 04:10:43;;;;;;;23.52;16.15;;;7.60;97.30;;;;;;5073343;28;20032;-80
2023/12/24 04:13:08;;;;;;;32.40;21.52;;;7.50;97.40;;;;;;5072512;28;20041;-80
2023/12/24 04:15:34;;;;;;;27.92;17.63;;;7.50;97.40;;;;;;5073661;28;20097;-80
2023/12/24 04:18:01;;;;;;;30.35;19.95;;;7.50;97.40;;;;;;5073083;28;20029;-80
2023/12/24 04:20:27;;;;;;;29.92;19.27;;;7.50;97.50;;;;;;5072545;28;20101;-80
2023/12/24 04:22:53;;;;;;;28.15;18.05;;;7.50;97.40;;;;;;5063270;28;20365;-79
2023/12/24 04:25:19;;;;;;;31.17;21.02;;;7.40;97.40;;;;;;5073516;28;20044;-79
2023/12/24 04:27:45;;;;;;;27.15;18.48;;;7.40;97.40;;;;;;5073224;28;20420;-79
2023/12/24 04:30:12;;;;;;;33.50;22.05;;;7.40;97.40;;;;;;5072926;28;20029;-79
2023/12/24 04:32:37;;;;;;;32.17;22.27;;;7.40;97.40;;;;;;5072872;28;20056;-79
2023/12/24 04:35:04;;;;;;;25.58;17.60;;;7.40;97.40;;;;;;5072619;28;20653;-80
2023/12/24 04:37:30;;;;;;;28.63;19.00;;;7.40;97.30;;;;;;5073205;28;20032;-80
2023/12/24 04:39:55;;;;;;;30.15;19.70;;;7.30;97.20;;;;;;5073242;28;20035;-80
2023/12/24 04:42:21;;;;;;;30.85;19.63;;;7.30;97.30;;;;;;5073130;28;20051;-80
2023/12/24 04:44:46;;;;;;;32.10;20.50;;;7.30;97.20;;;;;;5073004;28;20048;-79
2023/12/24 04:47:12;;;;;;;32.65;21.00;;;7.30;97.30;;;;;;5073396;28;20075;-80
2023/12/24 04:49:38;;;;;;;28.70;19.63;;;7.30;97.30;;;;;;5072277;28;20074;-79
2023/12/24 04:52:04;;;;;;;27.85;19.27;;;7.30;97.10;;;;;;5072709;28;20094;-78
2023/12/24 04:54:30;;;;;;;29.48;18.88;;;7.30;97.20;;;;;;5072757;28;20033;-79
2023/12/24 04:56:57;;;;;;;26.40;17.90;;;7.30;97.20;;;;;;5072972;28;20038;-79
2023/12/24 04:59:23;;;;;;;27.92;17.40;;;7.40;97.30;;;;;;5054775;28;20037;-80
2023/12/24 05:01:49;;;;;;;27.17;18.13;;;7.40;97.50;;;;;;5068071;28;20541;-79
2023/12/24 05:04:15;;;;;;;24.55;17.10;;;7.40;97.60;;;;;;5073036;28;20032;-80
2023/12/24 05:06:41;;;;;;;28.92;18.95;;;7.40;97.70;;;;;;5073034;28;20036;-80
2023/12/24 05:09:07;;;;;;;28.48;19.10;;;7.40;97.80;;;;;;5073052;28;20496;-80
2023/12/24 05:11:33;;;;;;;30.33;18.77;;;7.40;97.80;;;;;;5054405;28;20096;-80
2023/12/24 05:14:00;;;;;;;29.77;18.83;;;7.50;97.80;;;;;;5073054;28;20427;-80
2023/12/24 05:16:26;;;;;;;26.92;17.55;;;7.50;97.70;;;;;;5059300;28;20380;-80
2023/12/24 05:18:51;;;;;;;29.88;17.98;;;7.40;97.60;;;;;;5072388;28;20017;-80
2023/12/24 05:21:17;;;;;;;27.73;18.30;;;7.40;97.60;;;;;;5072469;28;20025;-80
2023/12/24 05:23:43;;;;;;;28.65;19.15;;;7.40;97.70;;;;;;5072554;28;20025;-80
2023/12/24 05:26:09;;;;;;;30.85;19.67;;;7.40;97.60;;;;;;5072654;28;20057;-80
2023/12/24 05:28:34;;;;;;;30.67;18.85;;;7.40;97.60;;;;;;5072206;28;20024;-80
2023/12/24 05:31:00;;;;;;;35.55;22.00;;;7.40;97.60;;;;;;5072413;28;20017;-79
2023/12/24 05:33:26;;;;;;;29.20;19.05;;;7.40;97.50;;;;;;5054078;28;20036;-80
2023/12/24 05:35:51;;;;;;;34.72;18.70;;;7.40;97.40;;;;;;5072721;28;20549;-79
2023/12/24 05:38:19;;;;;;;33.53;19.98;;;7.40;97.40;;;;;;5072281;28;20029;-80
2023/12/24 05:40:45;;;;;;;29.23;19.50;;;7.40;97.50;;;;;;5071451;28;20029;-80
2023/12/24 05:43:10;;;;;;;32.42;21.30;;;7.40;97.40;;;;;;5072327;28;20024;-80
2023/12/24 05:45:36;;;;;;;29.95;19.58;;;7.40;97.20;;;;;;5073945;28;20396;-80
2023/12/24 05:48:02;;;;;;;29.08;18.33;;;7.30;97.10;;;;;;5076217;28;20495;-80
2023/12/24 05:50:28;;;;;;;33.60;21.10;;;7.30;97.10;;;;;;5076208;28;20055;-80
2023/12/24 05:52:53;;;;;;;32.13;20.40;;;7.30;97.10;;;;;;5076390;28;20039;-80
2023/12/24 05:55:19;;;;;;;31.77;20.20;;;7.20;97.10;;;;;;5076583;28;20029;-79
2023/12/24 05:57:45;;;;;;;35.40;21.27;;;7.20;97.10;;;;;;5076559;28;20111;-79
2023/12/24 06:00:11;;;;;;;32.03;19.70;;;7.10;97.10;;;;;;5076108;28;20032;-80
2023/12/24 06:02:37;;;;;;;33.67;21.45;;;7.10;97.10;;;;;;5076220;28;20504;-80
2023/12/24 06:05:03;;;;;;;32.30;20.75;;;7.10;97.00;;;;;;5075612;28;20043;-79
2023/12/24 06:07:29;;;;;;;36.50;23.48;;;7.00;97.10;;;;;;5075827;28;20052;-80
2023/12/24 06:09:55;;;;;;;29.27;19.08;;;7.00;97.20;;;;;;5075085;28;20059;-80
2023/12/24 06:12:20;;;;;;;33.17;20.23;;;7.00;97.20;;;;;;5075602;28;20032;-80
2023/12/24 06:14:46;;;;;;;32.25;20.00;;;7.00;97.30;;;;;;5075214;28;20033;-79
2023/12/24 06:17:12;;;;;;;31.17;18.90;;;7.00;97.40;;;;;;5075197;28;20027;-79
2023/12/24 06:19:38;;;;;;;29.98;19.45;;;7.00;97.40;;;;;;5056939;28;20489;-79
2023/12/24 06:22:10;;;;;;;29.02;19.27;;;7.10;97.30;;;;;;5075303;28;20051;-79
2023/12/24 06:24:37;;;;;;;28.00;19.10;;;7.00;97.30;;;;;;5057637;28;20037;-80
2023/12/24 06:27:02;;;;;;;32.15;20.45;;;7.00;97.20;;;;;;5074871;28;20051;-79
2023/12/24 06:29:28;;;;;;;31.95;20.55;;;7.00;97.20;;;;;;5076920;28;20425;-79
2023/12/24 06:31:57;;;;;;;27.27;18.60;;;7.00;97.20;;;;;;5058632;28;20032;-79
2023/12/24 06:34:23;;;;;;;32.60;21.75;;;6.90;97.20;;;;;;5073493;28;20036;-79
2023/12/24 06:36:48;;;;;;;31.90;17.77;;;6.90;97.20;;;;;;5076467;28;20082;-82
2023/12/24 06:39:14;;;;;;;31.05;19.55;;;6.90;97.30;;;;;;5074280;28;20059;-83
2023/12/24 06:41:40;;;;;;;28.45;18.10;;;6.90;97.30;;;;;;5072628;28;20031;-83
2023/12/24 06:44:05;;;;;;;29.10;19.75;;;6.90;97.30;;;;;;5072152;28;20017;-83
2023/12/24 06:46:31;;;;;;;27.10;16.80;;;6.90;97.30;;;;;;5072944;28;20094;-83
2023/12/24 06:48:57;;;;;;;32.50;20.50;;;6.90;97.30;;;;;;5057101;28;20464;-82
2023/12/24 06:51:22;;;;;;;29.20;19.33;;;6.90;97.30;;;;;;5074890;28;20028;-82
2023/12/24 06:53:48;;;;;;;29.88;18.30;;;6.90;97.30;;;;;;5074814;28;20077;-83
2023/12/24 06:56:14;;;;;;;25.83;19.05;;;6.90;97.30;;;;;;5073763;28;20484;-82
2023/12/24 06:58:39;;;;;;;27.63;17.50;;;6.90;97.20;;;;;;5076184;28;20036;-82
2023/12/24 07:01:06;;;;;;;27.48;17.55;;;6.90;97.20;;;;;;5077407;28;20036;-82
2023/12/24 07:03:32;;;;;;;28.25;18.25;;;6.90;97.10;;;;;;5070380;28;20499;-82
2023/12/24 07:05:58;;;;;;;24.15;16.45;;;6.90;97.30;;;;;;5053695;28;20033;-83
2023/12/24 07:08:24;;;;;;;25.77;16.83;;;6.90;97.30;;;;;;5069189;28;20036;-83
2023/12/24 07:10:49;;;;;;;29.52;18.05;;;6.90;97.30;;;;;;5063850;28;20037;-80
2023/12/24 07:13:15;;;;;;;27.95;18.13;;;6.90;97.20;;;;;;5069346;28;20029;-82
2023/12/24 07:15:44;;;;;;;29.02;17.55;;;7.00;97.20;;;;;;5074204;28;20021;-79
2023/12/24 07:18:10;;;;;;;27.83;18.10;;;7.00;97.10;;;;;;5071539;28;20055;-80
2023/12/24 07:20:35;;;;;;;35.30;22.42;;;7.00;97.10;;;;;;5056155;28;20472;-82
2023/12/24 07:23:01;;;;;;;26.05;16.45;;;6.90;97.00;;;;;;5075167;28;20028;-83
2023/12/24 07:25:27;;;;;;;30.83;18.73;;;6.90;97.10;;;;;;5071414;28;20038;-82
2023/12/24 07:27:52;;;;;;;26.98;17.63;;;6.90;97.20;;;;;;5074264;28;20025;-81
2023/12/24 07:30:18;;;;;;;28.17;18.15;;;6.90;97.20;;;;;;5074414;28;20103;-81
2023/12/24 07:32:45;;;;;;;32.08;20.08;;;7.00;97.30;;;;;;5075389;28;20060;-81
2023/12/24 07:35:11;;;;;;;26.95;17.17;;;7.00;97.20;;;;;;5079467;28;20029;-80
2023/12/24 07:37:36;;;;;;;31.08;17.85;;;7.00;97.10;;;;;;5074086;28;20422;-81
2023/12/24 07:40:03;;;;;;;35.75;19.33;;;7.00;97.20;;;;;;5072117;28;20064;-83
2023/12/24 07:42:29;;;;;;;31.27;19.67;;;7.00;97.60;;;;;;5080032;28;20024;-80
2023/12/24 07:44:54;;;;;;;25.63;17.10;;;7.10;97.70;;;;;;5078457;28;20039;-80
2023/12/24 07:47:20;;;;;;;26.45;17.05;;;7.20;97.50;;;;;;5072402;28;20036;-80
2023/12/24 07:49:46;;;;;;;31.05;17.65;;;7.30;97.30;;;;;;5067332;28;20108;-81
2023/12/24 07:52:11;;;;;;;31.85;19.48;;;7.30;97.20;;;;;;5056076;28;20020;-81
2023/12/24 07:54:37;;;;;;;29.92;18.67;;;7.40;97.10;;;;;;5072546;28;20036;-80
2023/12/24 07:57:03;;;;;;;26.50;17.35;;;7.40;97.10;;;;;;5073811;28;20029;-86
2023/12/24 07:59:29;;;;;;;26.52;18.30;;;7.40;97.10;;;;;;5072062;28;20077;-86
2023/12/24 08:01:55;;;;;;;26.45;17.00;;;7.50;97.00;;;;;;5072162;28;20123;-86
2023/12/24 08:04:20;;;;;;;29.35;16.88;;;7.50;97.00;;;;;;5073914;28;20044;-86
2023/12/24 08:06:46;;;;;;;27.83;17.58;;;7.50;97.00;;;;;;5072119;28;20028;-86
2023/12/24 08:09:12;;;;;;;26.08;17.75;;;7.50;97.10;;;;;;5072325;28;20506;-86
2023/12/24 08:11:37;;;;;;;25.02;16.38;;;7.50;97.10;;;;;;5055192;28;20028;-85
2023/12/24 08:14:04;;;;;;;27.77;17.33;;;7.60;97.10;;;;;;5058755;28;20061;-85
2023/12/24 08:16:32;;;;;;;22.92;14.27;;;7.60;97.10;;;;;;5071845;28;20021;-88
2023/12/24 08:19:02;;;;;;;22.10;15.23;;;7.60;97.00;;;;;;5052766;28;20028;-81
2023/12/24 08:21:28;;;;;;;25.65;16.55;;;7.60;97.20;;;;;;5071691;28;20024;-81
2023/12/24 08:23:54;;;;;;;26.45;16.05;;;7.70;97.20;;;;;;5071975;28;20082;-82
2023/12/24 08:26:19;;;;;;;23.45;16.27;;;7.70;97.20;;;;;;5072591;28;20350;-89
2023/12/24 08:28:45;;;;;;;25.15;16.45;;;7.80;97.30;;;;;;5074253;28;20078;-89
2023/12/24 08:31:11;;;;;;;23.23;14.70;;;7.80;97.30;;;;;;5055321;28;20381;-86
2023/12/24 08:33:37;;;;;;;23.60;13.30;;;7.90;97.20;;;;;;5073781;28;20058;-85
2023/12/24 08:36:04;;;;;;;22.02;14.55;;;7.90;97.60;;;;;;5073517;28;21009;-86
2023/12/24 08:38:29;;;;;;;21.73;15.27;;;8.00;97.30;;;;;;5073631;28;20027;-90
2023/12/24 08:40:55;;;;;;;28.77;17.63;;;8.00;97.30;;;;;;5055115;28;20021;-89
2023/12/24 08:43:21;;;;;;;22.88;15.07;;;8.00;97.30;;;;;;5073892;28;20464;-89
2023/12/24 08:45:47;;;;;;;22.00;15.13;;;8.00;97.40;;;;;;5055907;28;20028;-89
2023/12/24 08:48:12;;;;;;;21.55;14.85;;;8.00;97.40;;;;;;5073869;28;20449;-89
2023/12/24 08:50:38;;;;;;;27.23;17.10;;;8.00;97.40;;;;;;5073856;28;20055;-90
2023/12/24 08:53:04;;;;;;;23.20;15.68;;;8.00;97.40;;;;;;5072344;28;20101;-89
2023/12/24 08:55:30;;;;;;;25.65;15.40;;;8.10;97.40;;;;;;5073169;28;20021;-89
2023/12/24 08:57:56;;;;;;;24.92;16.27;;;8.10;97.50;;;;;;5072832;28;20580;-88
2023/12/24 09:00:22;;;;;;;26.25;15.05;;;8.20;97.40;;;;;;5073404;28;20364;-88
2023/12/24 09:02:47;;;;;;;19.40;13.23;;;8.20;97.40;;;;;;5073539;28;20041;-90
2023/12/24 09:05:14;;;;;;;22.33;15.27;;;8.30;97.40;;;;;;5055690;28;20044;-89
2023/12/24 09:07:39;;;;;;;21.98;15.07;;;8.40;97.40;;;;;;5056146;28;20035;-89
2023/12/24 09:10:05;;;;;;;23.30;15.10;;;8.50;97.30;;;;;;5074586;28;20025;-89
2023/12/24 09:12:31;;;;;;;26.08;17.02;;;8.60;97.20;;;;;;5073895;28;20480;-89
2023/12/24 09:14:57;;;;;;;24.35;16.88;;;8.70;97.20;;;;;;5055360;28;20035;-89
2023/12/24 09:17:23;;;;;;;23.83;14.90;;;8.80;97.10;;;;;;5073568;28;20031;-88
2023/12/24 09:19:48;;;;;;;23.10;15.40;;;9.00;97.00;;;;;;5072798;28;20021;-89
2023/12/24 09:22:14;;;;;;;22.75;15.40;;;9.10;97.00;;;;;;5054912;28;20350;-89
2023/12/24 09:24:40;;;;;;;23.45;15.48;;;9.20;96.90;;;;;;5054340;28;20039;-88
2023/12/24 09:27:05;;;;;;;21.25;14.55;;;9.30;96.80;;;;;;5064969;28;20032;-88
2023/12/24 09:29:31;;;;;;;21.85;14.23;;;9.40;96.70;;;;;;5056031;28;20071;-89
2023/12/24 09:31:57;;;;;;;21.77;14.10;;;9.50;96.70;;;;;;5073194;28;20412;-88
2023/12/24 09:34:22;;;;;;;26.77;16.85;;;9.60;96.60;;;;;;5085796;28;20055;-88
2023/12/24 09:36:48;;;;;;;22.10;16.55;;;9.70;96.50;;;;;;5060915;28;20380;-87
2023/12/24 09:39:14;;;;;;;25.20;15.65;;;9.80;96.40;;;;;;5073433;28;20032;-90
2023/12/24 09:41:39;;;;;;;25.23;16.67;;;9.90;96.40;;;;;;5068862;28;20126;-85
2023/12/24 09:44:08;;;;;;;24.50;15.73;;;9.90;96.40;;;;;;5070904;28;20380;-85
2023/12/24 09:46:34;;;;;;;23.08;16.33;;;10.00;96.40;;;;;;5083722;28;20027;-84
2023/12/24 09:49:00;;;;;;;24.02;16.30;;;10.20;96.30;;;;;;5076702;28;20031;-85
2023/12/24 09:51:26;;;;;;;23.20;15.80;;;10.30;96.30;;;;;;5088322;28;20111;-85
2023/12/24 09:53:54;;;;;;;24.48;16.27;;;10.40;96.20;;;;;;5075989;28;20690;-85
2023/12/24 09:56:20;;;;;;;22.90;15.63;;;10.60;96.10;;;;;;5086612;28;20039;-84
2023/12/24 09:58:46;;;;;;;24.25;16.85;;;10.70;96.00;;;;;;5076911;28;20033;-85
2023/12/24 10:01:12;;;;;;;24.80;16.02;;;10.80;95.90;;;;;;5067233;28;20048;-84
2023/12/24 10:03:38;;;;;;;19.80;14.57;;;10.90;95.80;;;;;;5069412;28;20107;-85
2023/12/24 10:06:07;;;;;;;23.88;15.30;;;11.10;95.70;;;;;;5073018;28;20071;-91
2023/12/24 10:08:34;;;;;;;23.58;13.77;;;11.20;95.60;;;;;;5079645;28;20504;-91
2023/12/24 10:11:28;;;;;;;22.80;15.20;;;11.30;95.50;;;;;;5073112;28;21767;-90
2023/12/24 10:14:01;;;;;;;18.52;13.57;;;11.50;95.40;;;;;;5071217;28;20052;-85
2023/12/24 10:16:27;;;;;;;20.85;14.75;;;11.60;95.30;;;;;;5072453;28;20025;-85
2023/12/24 10:18:54;;;;;;;22.48;13.38;;;11.60;95.20;;;;;;5071971;28;20388;-84
2023/12/24 10:21:19;;;;;;;22.02;13.93;;;11.70;95.00;;;;;;5071677;28;20388;-84
2023/12/24 10:23:46;;;;;;;18.38;13.52;;;11.80;94.80;;;;;;5072426;28;20017;-85
2023/12/24 10:26:12;;;;;;;25.40;16.27;;;11.80;94.80;;;;;;5072472;28;20029;-85
2023/12/24 10:28:51;;;;;;;19.67;13.60;;;11.80;94.60;;;;;;5071888;28;20496;-85
2023/12/24 10:31:17;;;;;;;20.60;14.15;;;11.80;94.60;;;;;;5054720;28;20085;-84
2023/12/24 10:33:43;;;;;;;22.05;15.70;;;11.80;94.60;;;;;;5075189;28;20029;-84
2023/12/24 10:36:09;;;;;;;19.98;14.32;;;11.80;94.70;;;;;;5075572;28;20067;-85
2023/12/24 10:38:36;;;;;;;20.15;13.70;;;11.80;94.70;;;;;;5075516;28;20532;-85
2023/12/24 10:41:03;;;;;;;22.52;14.07;;;11.80;94.80;;;;;;5075663;28;20064;-84
2023/12/24 10:43:29;;;;;;;16.42;12.68;;;11.80;94.80;;;;;;5075666;28;20384;-84
2023/12/24 10:45:58;;;;;;;18.10;12.63;;;11.90;94.90;;;;;;5074753;28;20460;-83
2023/12/24 10:48:23;;;;;;;17.13;13.35;;;12.00;94.90;;;;;;5072799;28;20119;-84
2023/12/24 10:50:50;;;;;;;18.58;13.98;;;12.10;95.00;;;;;;5052879;28;20167;-83
2023/12/24 10:53:16;;;;;;;23.85;15.50;;;12.30;94.90;;;;;;5073569;28;20075;-83
2023/12/24 10:55:52;;;;;;;22.08;14.77;;;12.50;94.90;;;;;;5072571;28;20052;-82
2023/12/24 10:58:50;;;;;;;22.00;14.68;;;12.70;94.80;;;;;;5070137;28;20016;-82
2023/12/24 11:01:17;;;;;;;19.00;15.05;;;12.90;94.60;;;;;;5054257;28;20128;-83
2023/12/24 11:03:47;;;;;;;22.20;13.68;;;13.10;94.50;;;;;;5059148;28;20401;-82
2023/12/24 11:06:36;;;;;;;23.83;16.30;;;13.30;94.30;;;;;;5073888;28;20033;-81
2023/12/24 11:09:08;;;;;;;20.02;13.98;;;13.50;93.70;;;;;;5073517;28;20032;-83
2023/12/24 11:11:53;;;;;;;19.27;13.77;;;13.60;93.70;;;;;;5073122;28;20031;-84
2023/12/24 11:14:44;;;;;;;24.40;15.00;;;13.80;93.60;;;;;;5073331;28;20035;-85
2023/12/24 11:17:30;;;;;;;24.23;13.93;;;13.90;93.60;;;;;;5071091;28;20028;-83
2023/12/24 11:19:56;;;;;;;20.17;12.73;;;14.10;93.30;;;;;;5076126;28;20532;-85
2023/12/24 11:22:23;;;;;;;20.15;13.38;;;14.20;93.20;;;;;;5074726;28;20028;-85
2023/12/24 11:25:09;;;;;;;22.83;14.70;;;14.40;92.90;;;;;;5076360;28;20029;-85
2023/12/24 11:27:53;;;;;;;20.20;14.75;;;14.60;92.90;;;;;;5090308;28;20119;-86
2023/12/24 11:30:19;;;;;;;21.13;15.68;;;14.80;92.60;;;;;;5076733;28;20028;-86
2023/12/24 11:32:44;;;;;;;23.77;16.02;;;14.90;92.40;;;;;;5074221;28;20028;-86
2023/12/24 11:35:48;;;;;;;21.65;15.43;;;15.10;92.60;;;;;;5076238;28;20409;-85
2023/12/24 11:38:33;;;;;;;23.58;15.88;;;15.40;92.40;;;;;;5073257;28;20104;-90
2023/12/24 11:41:15;;;;;;;25.50;15.77;;;15.70;92.20;;;;;;5062288;28;20025;-89
2023/12/24 11:43:42;;;;;;;26.45;17.60;;;16.10;91.80;;;;;;5057368;28;20083;-89
2023/12/24 11:46:09;;;;;;;24.02;17.15;;;16.70;91.40;;;;;;5074511;28;20032;-90
2023/12/24 11:48:36;;;;;;;23.23;17.90;;;17.60;90.50;;;;;;5074279;28;20107;-94
2023/12/24 11:51:09;;;;;;;24.95;17.73;;;18.50;88.10;;;;;;5075576;28;20033;-86
2023/12/24 11:53:36;;;;;;;26.55;18.45;;;19.20;85.50;;;;;;5076409;28;20036;-87
2023/12/24 11:56:13;;;;;;;22.85;16.38;;;19.90;83.50;;;;;;5074153;28;20473;-90
2023/12/24 11:59:04;;;;;;;25.35;18.77;;;20.50;80.90;;;;;;5074820;28;20039;-91
2023/12/24 12:01:37;;;;;;;24.60;18.02;;;21.20;79.00;;;;;;5066134;28;20032;-92
2023/12/24 12:04:04;;;;;;;26.02;18.70;;;21.70;77.60;;;;;;5072693;28;20051;-85
2023/12/24 12:06:31;;;;;;;23.92;17.20;;;22.10;75.10;;;;;;5111543;22;20079;-84
2023/12/24 12:09:05;;;;;;;22.80;18.45;;;22.40;74.40;;;;;;5031616;28;20087;-84
2023/12/24 12:11:32;;;;;;;22.40;17.27;;;22.60;73.30;;;;;;5031662;28;20037;-83
2023/12/24 12:14:01;;;;;;;21.85;16.23;;;22.60;71.80;;;;;;5014838;28;20037;-84
2023/12/24 12:16:27;;;;;;;20.95;14.40;;;22.60;71.10;;;;;;5037379;28;20022;-84
2023/12/24 12:18:53;;;;;;;19.63;15.80;;;22.40;71.20;;;;;;5015985;28;20036;-83
2023/12/24 12:21:19;;;;;;;22.42;15.93;;;22.40;72.10;;;;;;5033821;28;20017;-84
2023/12/24 12:23:44;;;;;;;18.60;14.10;;;22.50;71.90;;;;;;5034704;28;20033;-84
2023/12/24 12:26:10;;;;;;;15.80;11.95;;;22.40;71.30;;;;;;5029869;28;20076;-84
2023/12/24 12:28:36;;;;;;;17.02;13.20;;;22.10;71.30;;;;;;5032838;28;20072;-82
2023/12/24 12:31:03;;;;;;;13.38;9.90;;;21.80;72.10;;;;;;5038811;28;20521;-82
2023/12/24 12:33:29;;;;;;;17.10;11.95;;;21.10;72.00;;;;;;5029578;28;20362;-82
2023/12/24 12:35:55;;;;;;;16.92;11.70;;;20.40;73.90;;;;;;5033233;28;20060;-82